sensor_id;sensor_type;location;lat;lon;timestamp;P1;durP1;ratioP1;P2;durP2;ratioP2
68765;SDS011;55756;45.582;11.484;2023-03-23T00:01:26;34.25;;;24.48;;
68765;SDS011;55756;45.582;11.484;2023-03-23T00:03:55;36.08;;;24.70;;
68765;SDS011;55756;45.582;11.484;2023-03-23T00:06:22;34.75;;;25.10;;
68765;SDS011;55756;45.582;11.484;2023-03-23T00:08:50;33.40;;;25.08;;
68765;SDS011;55756;45.582;11.484;2023-03-23T00:11:23;38.92;;;25.50;;
68765;SDS011;55756;45.582;11.484;2023-03-23T00:13:51;32.50;;;24.70;;
68765;SDS011;55756;45.582;11.484;2023-03-23T00:16:22;31.52;;;23.90;;
68765;SDS011;55756;45.582;11.484;2023-03-23T00:19:01;31.17;;;23.05;;
68765;SDS011;55756;45.582;11.484;2023-03-23T00:21:33;33.60;;;23.33;;
68765;SDS011;55756;45.582;11.484;2023-03-23T00:24:01;31.00;;;22.10;;
68765;SDS011;55756;45.582;11.484;2023-03-23T00:26:36;31.50;;;21.02;;
68765;SDS011;55756;45.582;11.484;2023-03-23T00:29:06;30.77;;;20.85;;
68765;SDS011;55756;45.582;11.484;2023-03-23T00:31:35;29.92;;;20.05;;
68765;SDS011;55756;45.582;11.484;2023-03-23T00:34:02;29.08;;;21.48;;
68765;SDS011;55756;45.582;11.484;2023-03-23T00:36:30;29.77;;;20.30;;
68765;SDS011;55756;45.582;11.484;2023-03-23T00:38:56;28.55;;;19.75;;
68765;SDS011;55756;45.582;11.484;2023-03-23T00:41:26;28.20;;;19.98;;
68765;SDS011;55756;45.582;11.484;2023-03-23T00:43:56;25.83;;;19.63;;
68765;SDS011;55756;45.582;11.484;2023-03-23T00:46:25;28.23;;;19.92;;
68765;SDS011;55756;45.582;11.484;2023-03-23T00:48:53;30.63;;;19.75;;
68765;SDS011;55756;45.582;11.484;2023-03-23T00:51:19;24.67;;;18.50;;
68765;SDS011;55756;45.582;11.484;2023-03-23T00:53:46;25.45;;;19.27;;
68765;SDS011;55756;45.582;11.484;2023-03-23T00:56:12;27.45;;;20.13;;
68765;SDS011;55756;45.582;11.484;2023-03-23T00:58:39;28.45;;;21.88;;
68765;SDS011;55756;45.582;11.484;2023-03-23T01:01:05;28.80;;;22.13;;
68765;SDS011;55756;45.582;11.484;2023-03-23T01:03:32;30.52;;;21.70;;
68765;SDS011;55756;45.582;11.484;2023-03-23T01:06:03;28.58;;;22.27;;
68765;SDS011;55756;45.582;11.484;2023-03-23T01:08:31;31.10;;;23.05;;
68765;SDS011;55756;45.582;11.484;2023-03-23T01:11:04;29.92;;;22.25;;
68765;SDS011;55756;45.582;11.484;2023-03-23T01:13:31;28.38;;;21.25;;
68765;SDS011;55756;45.582;11.484;2023-03-23T01:15:57;31.10;;;22.27;;
68765;SDS011;55756;45.582;11.484;2023-03-23T01:18:23;28.48;;;22.10;;
68765;SDS011;55756;45.582;11.484;2023-03-23T01:20:49;30.05;;;22.85;;
68765;SDS011;55756;45.582;11.484;2023-03-23T01:23:15;33.08;;;22.98;;
68765;SDS011;55756;45.582;11.484;2023-03-23T01:25:41;35.55;;;24.05;;
68765;SDS011;55756;45.582;11.484;2023-03-23T01:28:06;31.90;;;24.05;;
68765;SDS011;55756;45.582;11.484;2023-03-23T01:30:32;32.92;;;23.05;;
68765;SDS011;55756;45.582;11.484;2023-03-23T01:32:58;28.75;;;20.80;;
68765;SDS011;55756;45.582;11.484;2023-03-23T01:35:24;31.95;;;21.45;;
68765;SDS011;55756;45.582;11.484;2023-03-23T01:37:51;30.83;;;21.20;;
68765;SDS011;55756;45.582;11.484;2023-03-23T01:40:17;29.08;;;20.60;;
68765;SDS011;55756;45.582;11.484;2023-03-23T01:42:43;30.10;;;22.10;;
68765;SDS011;55756;45.582;11.484;2023-03-23T01:45:25;32.65;;;21.83;;
68765;SDS011;55756;45.582;11.484;2023-03-23T01:48:04;32.58;;;23.05;;
68765;SDS011;55756;45.582;11.484;2023-03-23T01:51:03;31.42;;;22.60;;
68765;SDS011;55756;45.582;11.484;2023-03-23T01:53:43;30.90;;;22.98;;
68765;SDS011;55756;45.582;11.484;2023-03-23T01:56:17;29.10;;;22.38;;
68765;SDS011;55756;45.582;11.484;2023-03-23T01:58:50;30.70;;;22.63;;
68765;SDS011;55756;45.582;11.484;2023-03-23T02:01:18;31.10;;;22.77;;
68765;SDS011;55756;45.582;11.484;2023-03-23T02:03:46;31.20;;;22.33;;
68765;SDS011;55756;45.582;11.484;2023-03-23T02:06:14;30.83;;;22.92;;
68765;SDS011;55756;45.582;11.484;2023-03-23T02:09:06;30.92;;;22.40;;
68765;SDS011;55756;45.582;11.484;2023-03-23T02:11:33;29.45;;;20.95;;
68765;SDS011;55756;45.582;11.484;2023-03-23T02:14:00;29.02;;;20.10;;
68765;SDS011;55756;45.582;11.484;2023-03-23T02:16:40;28.65;;;19.80;;
68765;SDS011;55756;45.582;11.484;2023-03-23T02:19:27;28.50;;;18.38;;
68765;SDS011;55756;45.582;11.484;2023-03-23T02:38:31;24.65;;;16.63;;
68765;SDS011;55756;45.582;11.484;2023-03-23T02:41:03;24.40;;;16.58;;
68765;SDS011;55756;45.582;11.484;2023-03-23T02:43:31;24.77;;;16.77;;
68765;SDS011;55756;45.582;11.484;2023-03-23T02:46:04;26.65;;;17.90;;
68765;SDS011;55756;45.582;11.484;2023-03-23T02:48:33;24.38;;;17.60;;
68765;SDS011;55756;45.582;11.484;2023-03-23T02:51:00;27.52;;;18.02;;
68765;SDS011;55756;45.582;11.484;2023-03-23T02:53:28;26.08;;;17.77;;
68765;SDS011;55756;45.582;11.484;2023-03-23T02:55:55;26.75;;;18.63;;
68765;SDS011;55756;45.582;11.484;2023-03-23T02:58:26;27.90;;;18.05;;
68765;SDS011;55756;45.582;11.484;2023-03-23T03:00:53;27.63;;;18.00;;
68765;SDS011;55756;45.582;11.484;2023-03-23T03:03:22;26.35;;;18.38;;
68765;SDS011;55756;45.582;11.484;2023-03-23T03:06:10;29.40;;;18.98;;
68765;SDS011;55756;45.582;11.484;2023-03-23T03:16:40;26.23;;;18.38;;
68765;SDS011;55756;45.582;11.484;2023-03-23T03:19:12;31.08;;;19.27;;
68765;SDS011;55756;45.582;11.484;2023-03-23T03:21:50;26.88;;;18.58;;
68765;SDS011;55756;45.582;11.484;2023-03-23T03:24:25;26.15;;;19.00;;
68765;SDS011;55756;45.582;11.484;2023-03-23T03:29:34;28.00;;;18.27;;
68765;SDS011;55756;45.582;11.484;2023-03-23T03:32:03;30.02;;;19.02;;
68765;SDS011;55756;45.582;11.484;2023-03-23T03:34:32;25.70;;;18.52;;
68765;SDS011;55756;45.582;11.484;2023-03-23T03:37:01;25.77;;;18.90;;
68765;SDS011;55756;45.582;11.484;2023-03-23T03:39:30;27.55;;;19.30;;
68765;SDS011;55756;45.582;11.484;2023-03-23T03:44:25;29.58;;;21.75;;
68765;SDS011;55756;45.582;11.484;2023-03-23T03:46:51;31.17;;;23.27;;
68765;SDS011;55756;45.582;11.484;2023-03-23T03:49:17;34.05;;;24.33;;
68765;SDS011;55756;45.582;11.484;2023-03-23T03:51:43;31.67;;;24.10;;
68765;SDS011;55756;45.582;11.484;2023-03-23T03:54:19;34.83;;;24.83;;
68765;SDS011;55756;45.582;11.484;2023-03-23T03:56:45;35.58;;;24.27;;
68765;SDS011;55756;45.582;11.484;2023-03-23T03:59:30;37.28;;;25.88;;
68765;SDS011;55756;45.582;11.484;2023-03-23T04:02:16;33.95;;;24.63;;
68765;SDS011;55756;45.582;11.484;2023-03-23T04:04:49;34.42;;;25.08;;
68765;SDS011;55756;45.582;11.484;2023-03-23T04:07:17;32.50;;;25.15;;
68765;SDS011;55756;45.582;11.484;2023-03-23T04:09:43;37.03;;;24.73;;
68765;SDS011;55756;45.582;11.484;2023-03-23T04:12:14;36.25;;;25.60;;
68765;SDS011;55756;45.582;11.484;2023-03-23T04:15:16;36.90;;;25.55;;
68765;SDS011;55756;45.582;11.484;2023-03-23T04:17:42;33.45;;;23.38;;
68765;SDS011;55756;45.582;11.484;2023-03-23T04:20:08;32.45;;;24.08;;
68765;SDS011;55756;45.582;11.484;2023-03-23T04:22:48;34.10;;;24.65;;
68765;SDS011;55756;45.582;11.484;2023-03-23T04:25:15;36.47;;;25.83;;
68765;SDS011;55756;45.582;11.484;2023-03-23T04:27:46;35.92;;;26.02;;
68765;SDS011;55756;45.582;11.484;2023-03-23T04:30:23;36.08;;;26.80;;
68765;SDS011;55756;45.582;11.484;2023-03-23T04:33:22;34.53;;;25.55;;
68765;SDS011;55756;45.582;11.484;2023-03-23T04:35:52;35.97;;;26.05;;
68765;SDS011;55756;45.582;11.484;2023-03-23T04:38:29;35.28;;;25.45;;
68765;SDS011;55756;45.582;11.484;2023-03-23T04:41:01;34.30;;;25.00;;
68765;SDS011;55756;45.582;11.484;2023-03-23T04:43:56;36.72;;;26.83;;
68765;SDS011;55756;45.582;11.484;2023-03-23T04:46:28;72.03;;;42.97;;
68765;SDS011;55756;45.582;11.484;2023-03-23T04:48:59;76.63;;;43.47;;
68765;SDS011;55756;45.582;11.484;2023-03-23T04:51:30;86.60;;;49.22;;
68765;SDS011;55756;45.582;11.484;2023-03-23T04:54:01;108.40;;;56.75;;
68765;SDS011;55756;45.582;11.484;2023-03-23T04:56:30;134.43;;;71.03;;
68765;SDS011;55756;45.582;11.484;2023-03-23T04:59:01;110.40;;;60.67;;
68765;SDS011;55756;45.582;11.484;2023-03-23T05:01:42;101.13;;;55.33;;
68765;SDS011;55756;45.582;11.484;2023-03-23T05:04:18;76.35;;;45.90;;
68765;SDS011;55756;45.582;11.484;2023-03-23T05:06:57;56.67;;;39.28;;
68765;SDS011;55756;45.582;11.484;2023-03-23T05:09:27;55.97;;;37.60;;
68765;SDS011;55756;45.582;11.484;2023-03-23T05:11:54;48.53;;;32.50;;
68765;SDS011;55756;45.582;11.484;2023-03-23T05:14:19;41.35;;;28.95;;
68765;SDS011;55756;45.582;11.484;2023-03-23T05:16:54;39.08;;;27.17;;
68765;SDS011;55756;45.582;11.484;2023-03-23T05:19:23;39.90;;;26.90;;
68765;SDS011;55756;45.582;11.484;2023-03-23T05:21:50;35.22;;;25.63;;
68765;SDS011;55756;45.582;11.484;2023-03-23T05:24:16;35.80;;;25.65;;
68765;SDS011;55756;45.582;11.484;2023-03-23T05:26:43;36.88;;;25.85;;
68765;SDS011;55756;45.582;11.484;2023-03-23T05:29:17;37.88;;;25.95;;
68765;SDS011;55756;45.582;11.484;2023-03-23T05:31:56;36.60;;;26.23;;
68765;SDS011;55756;45.582;11.484;2023-03-23T05:34:26;39.33;;;28.13;;
68765;SDS011;55756;45.582;11.484;2023-03-23T05:36:57;34.97;;;27.38;;
68765;SDS011;55756;45.582;11.484;2023-03-23T05:39:32;39.88;;;27.20;;
68765;SDS011;55756;45.582;11.484;2023-03-23T05:42:07;37.35;;;26.85;;
68765;SDS011;55756;45.582;11.484;2023-03-23T05:44:46;38.95;;;25.83;;
68765;SDS011;55756;45.582;11.484;2023-03-23T05:47:13;37.28;;;25.30;;
68765;SDS011;55756;45.582;11.484;2023-03-23T05:49:46;37.05;;;27.20;;
68765;SDS011;55756;45.582;11.484;2023-03-23T05:52:17;34.83;;;26.25;;
68765;SDS011;55756;45.582;11.484;2023-03-23T05:54:45;35.40;;;27.13;;
68765;SDS011;55756;45.582;11.484;2023-03-23T05:57:11;36.75;;;26.88;;
68765;SDS011;55756;45.582;11.484;2023-03-23T05:59:43;37.55;;;26.88;;
68765;SDS011;55756;45.582;11.484;2023-03-23T06:02:15;39.90;;;28.23;;
68765;SDS011;55756;45.582;11.484;2023-03-23T06:04:41;38.95;;;28.08;;
68765;SDS011;55756;45.582;11.484;2023-03-23T06:07:16;39.72;;;27.70;;
68765;SDS011;55756;45.582;11.484;2023-03-23T06:09:52;38.92;;;27.00;;
68765;SDS011;55756;45.582;11.484;2023-03-23T06:12:24;38.78;;;26.70;;
68765;SDS011;55756;45.582;11.484;2023-03-23T06:15:10;36.95;;;27.48;;
68765;SDS011;55756;45.582;11.484;2023-03-23T06:18:16;37.15;;;27.23;;
68765;SDS011;55756;45.582;11.484;2023-03-23T06:20:52;40.30;;;27.63;;
68765;SDS011;55756;45.582;11.484;2023-03-23T06:23:41;37.88;;;27.60;;
68765;SDS011;55756;45.582;11.484;2023-03-23T06:26:08;37.53;;;26.55;;
68765;SDS011;55756;45.582;11.484;2023-03-23T06:28:37;36.78;;;25.90;;
68765;SDS011;55756;45.582;11.484;2023-03-23T06:31:04;39.58;;;27.00;;
68765;SDS011;55756;45.582;11.484;2023-03-23T06:33:33;40.45;;;27.88;;
68765;SDS011;55756;45.582;11.484;2023-03-23T06:36:19;37.35;;;26.65;;
68765;SDS011;55756;45.582;11.484;2023-03-23T06:39:00;37.38;;;26.55;;
68765;SDS011;55756;45.582;11.484;2023-03-23T06:41:42;37.05;;;26.60;;
68765;SDS011;55756;45.582;11.484;2023-03-23T06:44:08;37.92;;;26.52;;
68765;SDS011;55756;45.582;11.484;2023-03-23T06:46:38;42.17;;;27.85;;
68765;SDS011;55756;45.582;11.484;2023-03-23T06:49:17;39.05;;;27.70;;
68765;SDS011;55756;45.582;11.484;2023-03-23T06:51:49;39.80;;;26.30;;
68765;SDS011;55756;45.582;11.484;2023-03-23T06:54:15;41.15;;;27.95;;
68765;SDS011;55756;45.582;11.484;2023-03-23T06:56:43;41.50;;;28.00;;
68765;SDS011;55756;45.582;11.484;2023-03-23T06:59:09;42.13;;;28.95;;
68765;SDS011;55756;45.582;11.484;2023-03-23T07:01:37;41.83;;;28.13;;
68765;SDS011;55756;45.582;11.484;2023-03-23T07:04:03;41.72;;;29.83;;
68765;SDS011;55756;45.582;11.484;2023-03-23T07:06:39;42.03;;;29.75;;
68765;SDS011;55756;45.582;11.484;2023-03-23T07:09:09;45.15;;;30.58;;
68765;SDS011;55756;45.582;11.484;2023-03-23T07:11:35;48.95;;;32.25;;
68765;SDS011;55756;45.582;11.484;2023-03-23T07:14:10;47.40;;;36.08;;
68765;SDS011;55756;45.582;11.484;2023-03-23T07:16:37;49.15;;;36.72;;
68765;SDS011;55756;45.582;11.484;2023-03-23T07:19:03;47.08;;;35.78;;
68765;SDS011;55756;45.582;11.484;2023-03-23T07:21:28;54.67;;;37.28;;
68765;SDS011;55756;45.582;11.484;2023-03-23T07:23:54;55.05;;;38.90;;
68765;SDS011;55756;45.582;11.484;2023-03-23T07:26:37;50.22;;;39.10;;
68765;SDS011;55756;45.582;11.484;2023-03-23T07:29:03;52.25;;;39.72;;
68765;SDS011;55756;45.582;11.484;2023-03-23T07:31:35;51.90;;;40.70;;
68765;SDS011;55756;45.582;11.484;2023-03-23T07:34:01;52.30;;;40.75;;
68765;SDS011;55756;45.582;11.484;2023-03-23T07:36:38;51.58;;;40.05;;
68765;SDS011;55756;45.582;11.484;2023-03-23T07:39:06;54.63;;;40.85;;
68765;SDS011;55756;45.582;11.484;2023-03-23T07:41:32;56.17;;;40.72;;
68765;SDS011;55756;45.582;11.484;2023-03-23T07:44:13;52.92;;;41.10;;
68765;SDS011;55756;45.582;11.484;2023-03-23T07:46:40;50.67;;;40.83;;
68765;SDS011;55756;45.582;11.484;2023-03-23T07:49:14;50.05;;;39.30;;
68765;SDS011;55756;45.582;11.484;2023-03-23T07:51:45;56.33;;;41.22;;
68765;SDS011;55756;45.582;11.484;2023-03-23T07:54:13;54.67;;;40.83;;
68765;SDS011;55756;45.582;11.484;2023-03-23T07:56:57;56.03;;;41.30;;
68765;SDS011;55756;45.582;11.484;2023-03-23T07:59:29;57.55;;;41.08;;
68765;SDS011;55756;45.582;11.484;2023-03-23T08:01:57;64.95;;;41.33;;
68765;SDS011;55756;45.582;11.484;2023-03-23T08:04:32;63.75;;;42.53;;
68765;SDS011;55756;45.582;11.484;2023-03-23T08:07:15;63.70;;;41.60;;
68765;SDS011;55756;45.582;11.484;2023-03-23T08:10:04;59.35;;;41.28;;
68765;SDS011;55756;45.582;11.484;2023-03-23T08:12:53;64.43;;;43.08;;
68765;SDS011;55756;45.582;11.484;2023-03-23T08:15:43;63.17;;;42.30;;
68765;SDS011;55756;45.582;11.484;2023-03-23T08:18:22;61.20;;;42.13;;
68765;SDS011;55756;45.582;11.484;2023-03-23T08:21:05;63.38;;;42.13;;
68765;SDS011;55756;45.582;11.484;2023-03-23T08:23:56;55.88;;;39.88;;
68765;SDS011;55756;45.582;11.484;2023-03-23T08:26:33;59.38;;;41.65;;
68765;SDS011;55756;45.582;11.484;2023-03-23T08:31:59;56.42;;;39.63;;
68765;SDS011;55756;45.582;11.484;2023-03-23T08:34:36;53.70;;;39.55;;
68765;SDS011;55756;45.582;11.484;2023-03-23T08:37:20;51.80;;;39.03;;
68765;SDS011;55756;45.582;11.484;2023-03-23T08:39:53;49.20;;;38.78;;
68765;SDS011;55756;45.582;11.484;2023-03-23T08:42:41;51.17;;;38.13;;
68765;SDS011;55756;45.582;11.484;2023-03-23T08:45:26;55.10;;;39.97;;
68765;SDS011;55756;45.582;11.484;2023-03-23T08:48:22;54.08;;;39.92;;
68765;SDS011;55756;45.582;11.484;2023-03-23T08:51:06;53.60;;;39.28;;
68765;SDS011;55756;45.582;11.484;2023-03-23T08:53:53;53.53;;;39.13;;
68765;SDS011;55756;45.582;11.484;2023-03-23T08:56:42;55.28;;;39.40;;
68765;SDS011;55756;45.582;11.484;2023-03-23T08:59:37;49.92;;;38.70;;
68765;SDS011;55756;45.582;11.484;2023-03-23T09:02:23;48.08;;;38.53;;
68765;SDS011;55756;45.582;11.484;2023-03-23T09:04:55;52.20;;;40.38;;
68765;SDS011;55756;45.582;11.484;2023-03-23T09:07:40;52.70;;;38.83;;
68765;SDS011;55756;45.582;11.484;2023-03-23T09:10:11;51.53;;;38.03;;
68765;SDS011;55756;45.582;11.484;2023-03-23T09:12:38;50.03;;;38.55;;
68765;SDS011;55756;45.582;11.484;2023-03-23T09:15:06;49.97;;;38.90;;
68765;SDS011;55756;45.582;11.484;2023-03-23T09:17:36;51.63;;;39.38;;
68765;SDS011;55756;45.582;11.484;2023-03-23T09:20:05;51.25;;;38.33;;
68765;SDS011;55756;45.582;11.484;2023-03-23T09:22:42;51.88;;;38.10;;
68765;SDS011;55756;45.582;11.484;2023-03-23T09:25:10;51.25;;;38.38;;
68765;SDS011;55756;45.582;11.484;2023-03-23T09:27:38;51.05;;;37.05;;
68765;SDS011;55756;45.582;11.484;2023-03-23T09:30:08;53.42;;;37.40;;
68765;SDS011;55756;45.582;11.484;2023-03-23T09:32:37;52.58;;;38.40;;
68765;SDS011;55756;45.582;11.484;2023-03-23T09:35:04;54.47;;;38.63;;
68765;SDS011;55756;45.582;11.484;2023-03-23T09:37:36;53.00;;;37.97;;
68765;SDS011;55756;45.582;11.484;2023-03-23T09:40:03;47.85;;;38.08;;
68765;SDS011;55756;45.582;11.484;2023-03-23T09:51:08;48.55;;;34.90;;
68765;SDS011;55756;45.582;11.484;2023-03-23T09:53:58;48.72;;;35.80;;
68765;SDS011;55756;45.582;11.484;2023-03-23T09:56:36;48.65;;;35.72;;
68765;SDS011;55756;45.582;11.484;2023-03-23T10:01:53;48.80;;;35.85;;
68765;SDS011;55756;45.582;11.484;2023-03-23T10:04:39;51.65;;;35.92;;
68765;SDS011;55756;45.582;11.484;2023-03-23T10:09:41;44.83;;;34.33;;
68765;SDS011;55756;45.582;11.484;2023-03-23T10:12:18;49.13;;;34.28;;
68765;SDS011;55756;45.582;11.484;2023-03-23T10:22:39;43.78;;;33.67;;
68765;SDS011;55756;45.582;11.484;2023-03-23T10:30:29;51.20;;;32.17;;
68765;SDS011;55756;45.582;11.484;2023-03-23T10:33:01;46.92;;;32.13;;
68765;SDS011;55756;45.582;11.484;2023-03-23T10:35:54;54.30;;;33.30;;
68765;SDS011;55756;45.582;11.484;2023-03-23T10:38:33;43.45;;;32.70;;
68765;SDS011;55756;45.582;11.484;2023-03-23T10:41:15;46.47;;;28.00;;
68765;SDS011;55756;45.582;11.484;2023-03-23T10:43:43;37.05;;;25.88;;
68765;SDS011;55756;45.582;11.484;2023-03-23T10:49:14;36.75;;;24.50;;
68765;SDS011;55756;45.582;11.484;2023-03-23T10:51:47;34.78;;;24.83;;
68765;SDS011;55756;45.582;11.484;2023-03-23T10:54:25;35.72;;;24.70;;
68765;SDS011;55756;45.582;11.484;2023-03-23T10:56:53;34.65;;;23.65;;
68765;SDS011;55756;45.582;11.484;2023-03-23T10:59:20;38.00;;;23.48;;
68765;SDS011;55756;45.582;11.484;2023-03-23T11:01:52;36.47;;;23.50;;
68765;SDS011;55756;45.582;11.484;2023-03-23T11:04:21;29.77;;;21.90;;
68765;SDS011;55756;45.582;11.484;2023-03-23T11:06:49;28.23;;;20.95;;
68765;SDS011;55756;45.582;11.484;2023-03-23T11:09:18;28.73;;;19.85;;
68765;SDS011;55756;45.582;11.484;2023-03-23T11:11:50;26.52;;;18.50;;
68765;SDS011;55756;45.582;11.484;2023-03-23T11:16:54;23.15;;;14.43;;
68765;SDS011;55756;45.582;11.484;2023-03-23T11:19:28;23.73;;;16.15;;
68765;SDS011;55756;45.582;11.484;2023-03-23T11:24:42;28.73;;;17.55;;
68765;SDS011;55756;45.582;11.484;2023-03-23T11:27:10;28.40;;;18.20;;
68765;SDS011;55756;45.582;11.484;2023-03-23T11:29:47;29.60;;;18.88;;
68765;SDS011;55756;45.582;11.484;2023-03-23T11:32:14;27.25;;;19.73;;
68765;SDS011;55756;45.582;11.484;2023-03-23T11:37:11;30.08;;;19.05;;
68765;SDS011;55756;45.582;11.484;2023-03-23T11:51:13;31.75;;;20.17;;
68765;SDS011;55756;45.582;11.484;2023-03-23T11:58:44;30.38;;;22.67;;
68765;SDS011;55756;45.582;11.484;2023-03-23T12:07:10;33.33;;;23.70;;
68765;SDS011;55756;45.582;11.484;2023-03-23T12:12:30;33.08;;;23.98;;
68765;SDS011;55756;45.582;11.484;2023-03-23T12:18:04;34.95;;;24.27;;
68765;SDS011;55756;45.582;11.484;2023-03-23T12:20:47;38.47;;;25.23;;
68765;SDS011;55756;45.582;11.484;2023-03-23T12:31:15;39.53;;;25.83;;
68765;SDS011;55756;45.582;11.484;2023-03-23T12:42:15;36.72;;;26.25;;
68765;SDS011;55756;45.582;11.484;2023-03-23T12:44:47;37.22;;;25.25;;
68765;SDS011;55756;45.582;11.484;2023-03-23T12:50:00;330.70;;;33.80;;
68765;SDS011;55756;45.582;11.484;2023-03-23T12:52:38;155.40;;;28.33;;
68765;SDS011;55756;45.582;11.484;2023-03-23T12:56:05;67.75;;;26.85;;
68765;SDS011;55756;45.582;11.484;2023-03-23T12:58:11;50.95;;;25.10;;
68765;SDS011;55756;45.582;11.484;2023-03-23T13:03:51;38.88;;;24.17;;
68765;SDS011;55756;45.582;11.484;2023-03-23T13:11:48;31.15;;;23.52;;
68765;SDS011;55756;45.582;11.484;2023-03-23T13:23:08;40.97;;;25.35;;
68765;SDS011;55756;45.582;11.484;2023-03-23T13:28:32;39.90;;;25.67;;
68765;SDS011;55756;45.582;11.484;2023-03-23T13:31:32;60.05;;;25.63;;
68765;SDS011;55756;45.582;11.484;2023-03-23T13:34:03;42.03;;;23.63;;
68765;SDS011;55756;45.582;11.484;2023-03-23T13:36:31;44.83;;;25.00;;
68765;SDS011;55756;45.582;11.484;2023-03-23T13:39:00;54.55;;;26.52;;
68765;SDS011;55756;45.582;11.484;2023-03-23T13:41:29;38.63;;;25.02;;
68765;SDS011;55756;45.582;11.484;2023-03-23T13:44:22;35.55;;;25.38;;
68765;SDS011;55756;45.582;11.484;2023-03-23T13:47:14;35.50;;;24.50;;
68765;SDS011;55756;45.582;11.484;2023-03-23T13:50:01;33.95;;;24.77;;
68765;SDS011;55756;45.582;11.484;2023-03-23T14:00:33;31.13;;;24.20;;
68765;SDS011;55756;45.582;11.484;2023-03-23T14:03:10;37.22;;;24.92;;
68765;SDS011;55756;45.582;11.484;2023-03-23T14:18:29;37.42;;;24.83;;
68765;SDS011;55756;45.582;11.484;2023-03-23T14:21:06;58.30;;;27.67;;
68765;SDS011;55756;45.582;11.484;2023-03-23T14:23:38;55.97;;;27.50;;
68765;SDS011;55756;45.582;11.484;2023-03-23T14:26:09;65.00;;;28.70;;
68765;SDS011;55756;45.582;11.484;2023-03-23T14:28:40;64.35;;;27.63;;
68765;SDS011;55756;45.582;11.484;2023-03-23T14:34:02;40.60;;;25.48;;
68765;SDS011;55756;45.582;11.484;2023-03-23T14:36:31;39.90;;;25.27;;
68765;SDS011;55756;45.582;11.484;2023-03-23T14:39:07;41.85;;;26.52;;
68765;SDS011;55756;45.582;11.484;2023-03-23T14:52:42;43.63;;;26.73;;
68765;SDS011;55756;45.582;11.484;2023-03-23T18:20:57;39.35;;;28.92;;
68765;SDS011;55756;45.582;11.484;2023-03-23T18:23:25;42.38;;;30.17;;
68765;SDS011;55756;45.582;11.484;2023-03-23T18:25:51;40.10;;;29.60;;
68765;SDS011;55756;45.582;11.484;2023-03-23T18:30:50;40.72;;;30.50;;
68765;SDS011;55756;45.582;11.484;2023-03-23T18:33:16;41.65;;;30.77;;
68765;SDS011;55756;45.582;11.484;2023-03-23T18:38:13;42.80;;;32.00;;
68765;SDS011;55756;45.582;11.484;2023-03-23T18:40:43;42.05;;;32.03;;
68765;SDS011;55756;45.582;11.484;2023-03-23T18:43:10;41.38;;;33.25;;
68765;SDS011;55756;45.582;11.484;2023-03-23T18:45:36;43.95;;;34.45;;
68765;SDS011;55756;45.582;11.484;2023-03-23T18:48:02;44.20;;;34.58;;
68765;SDS011;55756;45.582;11.484;2023-03-23T18:50:32;49.33;;;34.22;;
68765;SDS011;55756;45.582;11.484;2023-03-23T18:57:52;46.40;;;33.50;;
68765;SDS011;55756;45.582;11.484;2023-03-23T19:00:18;48.95;;;35.22;;
68765;SDS011;55756;45.582;11.484;2023-03-23T19:02:45;46.10;;;35.25;;
68765;SDS011;55756;45.582;11.484;2023-03-23T19:05:11;47.90;;;35.53;;
68765;SDS011;55756;45.582;11.484;2023-03-23T19:07:37;47.35;;;36.38;;
68765;SDS011;55756;45.582;11.484;2023-03-23T19:10:03;45.78;;;35.33;;
68765;SDS011;55756;45.582;11.484;2023-03-23T19:12:29;47.95;;;35.83;;
68765;SDS011;55756;45.582;11.484;2023-03-23T19:14:56;54.30;;;36.53;;
68765;SDS011;55756;45.582;11.484;2023-03-23T19:17:21;49.03;;;37.53;;
68765;SDS011;55756;45.582;11.484;2023-03-23T19:19:49;49.47;;;37.85;;
68765;SDS011;55756;45.582;11.484;2023-03-23T19:22:15;54.20;;;38.60;;
68765;SDS011;55756;45.582;11.484;2023-03-23T19:24:43;50.33;;;38.45;;
68765;SDS011;55756;45.582;11.484;2023-03-23T19:27:09;50.20;;;37.58;;
68765;SDS011;55756;45.582;11.484;2023-03-23T19:29:35;48.47;;;37.65;;
68765;SDS011;55756;45.582;11.484;2023-03-23T19:32:00;50.67;;;37.35;;
68765;SDS011;55756;45.582;11.484;2023-03-23T19:34:27;52.22;;;37.58;;
68765;SDS011;55756;45.582;11.484;2023-03-23T19:37:03;49.83;;;39.13;;
68765;SDS011;55756;45.582;11.484;2023-03-23T19:39:32;50.65;;;37.75;;
68765;SDS011;55756;45.582;11.484;2023-03-23T19:41:58;53.05;;;39.17;;
68765;SDS011;55756;45.582;11.484;2023-03-23T19:44:24;58.97;;;40.83;;
68765;SDS011;55756;45.582;11.484;2023-03-23T19:46:50;54.03;;;39.65;;
68765;SDS011;55756;45.582;11.484;2023-03-23T19:49:16;52.20;;;39.90;;
68765;SDS011;55756;45.582;11.484;2023-03-23T19:51:42;50.30;;;40.00;;
68765;SDS011;55756;45.582;11.484;2023-03-23T19:54:07;53.08;;;40.35;;
68765;SDS011;55756;45.582;11.484;2023-03-23T19:56:33;50.20;;;39.05;;
68765;SDS011;55756;45.582;11.484;2023-03-23T19:59:00;51.20;;;38.58;;
68765;SDS011;55756;45.582;11.484;2023-03-23T20:01:26;51.90;;;38.97;;
68765;SDS011;55756;45.582;11.484;2023-03-23T20:03:52;51.28;;;38.83;;
68765;SDS011;55756;45.582;11.484;2023-03-23T20:06:20;47.33;;;36.92;;
68765;SDS011;55756;45.582;11.484;2023-03-23T20:08:46;49.42;;;38.10;;
68765;SDS011;55756;45.582;11.484;2023-03-23T20:11:13;50.05;;;38.50;;
68765;SDS011;55756;45.582;11.484;2023-03-23T20:13:41;52.00;;;39.65;;
68765;SDS011;55756;45.582;11.484;2023-03-23T20:16:07;54.38;;;40.58;;
68765;SDS011;55756;45.582;11.484;2023-03-23T20:18:33;53.70;;;40.05;;
68765;SDS011;55756;45.582;11.484;2023-03-23T20:21:01;54.97;;;40.85;;
68765;SDS011;55756;45.582;11.484;2023-03-23T20:23:30;58.05;;;40.03;;
68765;SDS011;55756;45.582;11.484;2023-03-23T20:25:57;53.88;;;39.45;;
68765;SDS011;55756;45.582;11.484;2023-03-23T20:28:24;60.17;;;40.97;;
68765;SDS011;55756;45.582;11.484;2023-03-23T20:31:01;57.45;;;39.80;;
68765;SDS011;55756;45.582;11.484;2023-03-23T20:33:29;55.95;;;41.35;;
68765;SDS011;55756;45.582;11.484;2023-03-23T20:35:55;54.95;;;39.53;;
68765;SDS011;55756;45.582;11.484;2023-03-23T20:38:22;56.30;;;41.22;;
68765;SDS011;55756;45.582;11.484;2023-03-23T20:40:49;55.90;;;40.35;;
68765;SDS011;55756;45.582;11.484;2023-03-23T20:43:17;53.57;;;39.60;;
68765;SDS011;55756;45.582;11.484;2023-03-23T20:45:43;53.00;;;40.58;;
68765;SDS011;55756;45.582;11.484;2023-03-23T20:48:09;54.15;;;39.92;;
68765;SDS011;55756;45.582;11.484;2023-03-23T20:50:35;59.25;;;40.33;;
68765;SDS011;55756;45.582;11.484;2023-03-23T20:53:00;53.40;;;40.53;;
68765;SDS011;55756;45.582;11.484;2023-03-23T20:55:27;55.80;;;39.92;;
68765;SDS011;55756;45.582;11.484;2023-03-23T20:57:53;56.10;;;40.35;;
68765;SDS011;55756;45.582;11.484;2023-03-23T21:00:19;52.20;;;40.05;;
68765;SDS011;55756;45.582;11.484;2023-03-23T21:02:45;52.45;;;40.80;;
68765;SDS011;55756;45.582;11.484;2023-03-23T21:05:13;54.55;;;41.25;;